createdAt,value
2017-02-01T00:00:02.520Z,1.2
2017-02-01T00:05:02.746Z,1.2
2017-02-01T00:10:02.507Z,1.2
2017-02-01T00:15:03.106Z,1.3
2017-02-01T00:20:02.600Z,1.3
2017-02-01T00:25:03.175Z,1.3
2017-02-01T00:30:02.681Z,1.2
2017-02-01T00:35:03.060Z,1.2
2017-02-01T00:40:02.622Z,1.2
2017-02-01T00:45:03.188Z,1.1
2017-02-01T00:50:03.135Z,1.1
2017-02-01T00:55:02.624Z,1.1
2017-02-01T01:00:02.405Z,1.2
2017-02-01T01:05:03.386Z,1.2
2017-02-01T01:10:03.187Z,1.3
2017-02-01T01:15:02.596Z,1.2
2017-02-01T01:20:03.135Z,1.3
2017-02-01T01:25:02.611Z,1.2
2017-02-01T01:30:03.221Z,1.2
2017-02-01T01:35:02.546Z,1.3
2017-02-01T01:40:03.100Z,1.3
2017-02-01T01:45:02.539Z,1.3
2017-02-01T01:50:03.272Z,1.3
2017-02-01T01:55:02.423Z,1.6
2017-02-01T02:00:03.188Z,1.6
2017-02-01T02:05:02.641Z,1.6
2017-02-01T02:10:02.382Z,1.6
2017-02-01T02:15:02.640Z,1.6
2017-02-01T02:20:03.097Z,1.7
2017-02-01T02:25:02.706Z,1.7
2017-02-01T02:30:03.101Z,1.7
2017-02-01T02:35:02.773Z,1.7
2017-02-01T02:40:03.151Z,1.8
2017-02-01T02:45:02.948Z,1.8
2017-02-01T02:50:03.293Z,1.7
2017-02-01T02:55:03.273Z,1.8
2017-02-01T03:00:02.630Z,1.8
2017-02-01T03:05:03.168Z,1.8
2017-02-01T03:10:02.600Z,1.8
2017-02-01T03:15:02.494Z,1.8
2017-02-01T03:20:02.998Z,1.8
2017-02-01T03:25:02.618Z,1.8
2017-02-01T03:30:03.039Z,2.0
2017-02-01T03:35:02.995Z,2.0
2017-02-01T03:40:02.402Z,2.0
2017-02-01T03:45:03.375Z,2.0
2017-02-01T03:50:02.846Z,2.2
2017-02-01T03:55:02.504Z,2.2
2017-02-01T04:00:02.842Z,2.2
2017-02-01T04:05:02.473Z,2.2
2017-02-01T04:10:02.396Z,2.2
2017-02-01T04:15:02.761Z,2.2
2017-02-01T04:20:02.535Z,2.4
2017-02-01T04:25:03.086Z,2.4
2017-02-01T04:30:02.823Z,2.2
2017-02-01T04:35:03.255Z,2.2
2017-02-01T04:40:03.236Z,2.4
2017-02-01T04:45:02.959Z,2.2
2017-02-01T04:50:02.874Z,2.0
2017-02-01T04:55:02.563Z,2.0
2017-02-01T05:00:02.931Z,1.8
2017-02-01T05:05:02.636Z,1.8
2017-02-01T05:10:03.039Z,1.7
2017-02-01T05:15:03.032Z,1.7
2017-02-01T05:20:02.366Z,1.7
2017-02-01T05:25:02.985Z,1.6
2017-02-01T05:30:03.242Z,1.7
2017-02-01T05:35:02.428Z,1.6
2017-02-01T05:40:03.134Z,1.3
2017-02-01T05:45:02.846Z,1.2
2017-02-01T05:50:03.366Z,1.2
2017-02-01T05:55:02.671Z,1.2
2017-02-01T06:00:03.102Z,1.1
2017-02-01T06:05:03.337Z,1.1
2017-02-01T06:10:03.187Z,1.1
2017-02-01T06:15:02.891Z,1.1
2017-02-01T06:20:03.341Z,0.8
2017-02-01T06:25:02.642Z,1.1
2017-02-01T06:30:02.452Z,0.8
2017-02-01T06:35:02.450Z,0.7
2017-02-01T06:40:02.862Z,0.7
2017-02-01T06:45:02.486Z,0.7
2017-02-01T06:50:03.068Z,0.7
2017-02-01T06:55:03.449Z,0.7
2017-02-01T07:00:03.098Z,0.6
2017-02-01T07:05:02.681Z,0.7
2017-02-01T07:10:02.441Z,0.6
2017-02-01T07:15:03.133Z,0.7
2017-02-01T07:20:02.560Z,0.6
2017-02-01T07:25:02.980Z,0.4
2017-02-01T07:30:03.339Z,0.6
2017-02-01T07:35:03.043Z,0.6
2017-02-01T07:40:02.805Z,0.6
2017-02-01T07:45:02.534Z,0.6
2017-02-01T07:50:03.096Z,0.7
2017-02-01T07:55:03.013Z,0.7
2017-02-01T08:00:02.576Z,0.7
2017-02-01T08:05:03.394Z,0.8
2017-02-01T08:10:02.714Z,0.8
2017-02-01T08:15:02.352Z,1.1
2017-02-01T08:20:02.815Z,1.2
2017-02-01T08:25:02.578Z,1.2
2017-02-01T08:30:03.013Z,1.3
2017-02-01T08:35:02.945Z,1.3
2017-02-01T08:40:03.366Z,1.3
2017-02-01T08:45:02.962Z,1.6
2017-02-01T08:50:03.360Z,1.6
2017-02-01T08:55:03.031Z,1.6
2017-02-01T09:00:02.436Z,1.7
2017-02-01T09:05:03.133Z,1.8
2017-02-01T09:10:02.578Z,1.8
2017-02-01T09:15:03.323Z,2.0
2017-02-01T09:20:02.807Z,2.4
2017-02-01T09:25:02.572Z,2.5
2017-02-01T09:30:03.189Z,3.0
2017-02-01T09:35:02.663Z,3.2
2017-02-01T09:40:02.956Z,3.2
2017-02-01T09:45:02.512Z,3.5
2017-02-01T09:50:03.068Z,3.7
2017-02-01T09:55:03.290Z,3.7
2017-02-01T10:00:03.140Z,3.7
2017-02-01T10:05:02.678Z,3.7
2017-02-01T10:10:03.180Z,4.0
2017-02-01T10:15:02.642Z,4.0
2017-02-01T10:20:02.479Z,4.3
2017-02-01T10:25:03.284Z,4.3
2017-02-01T10:30:02.585Z,4.0
2017-02-01T10:35:02.431Z,4.0
2017-02-01T10:40:03.235Z,4.5
2017-02-01T10:45:02.928Z,5.0
2017-02-01T10:50:02.525Z,4.5
2017-02-01T10:55:03.377Z,4.5
2017-02-01T11:00:03.331Z,4.8
2017-02-01T11:05:03.102Z,5.4
2017-02-01T11:10:02.579Z,5.3
2017-02-01T11:15:03.163Z,5.3
2017-02-01T11:20:02.898Z,5.5
2017-02-01T11:25:03.182Z,5.4
2017-02-01T11:30:02.452Z,5.4
2017-02-01T11:35:03.137Z,5.5
2017-02-01T11:40:02.673Z,6.0
2017-02-01T11:45:03.181Z,5.9
2017-02-01T11:50:02.843Z,5.4
2017-02-01T11:55:02.533Z,5.5
2017-02-01T12:00:03.309Z,5.9
2017-02-01T12:05:02.996Z,5.4
2017-02-01T12:10:02.687Z,5.5
2017-02-01T12:15:02.740Z,5.4
2017-02-01T12:20:02.695Z,5.5
2017-02-01T12:25:02.582Z,5.8
2017-02-01T12:30:02.579Z,5.4
2017-02-01T12:35:02.874Z,5.5
2017-02-01T12:40:03.117Z,5.4
2017-02-01T12:45:03.205Z,5.5
2017-02-01T12:50:03.000Z,5.4
2017-02-01T12:55:03.045Z,5.3
2017-02-01T13:00:02.528Z,5.3
2017-02-01T13:05:03.268Z,5.0
2017-02-01T13:10:02.946Z,5.0
2017-02-01T13:15:02.967Z,4.8
2017-02-01T13:20:02.620Z,5.0
2017-02-01T13:25:02.614Z,5.0
2017-02-01T13:30:03.363Z,4.8
2017-02-01T13:35:02.443Z,4.5
2017-02-01T13:40:03.272Z,4.5
2017-02-01T13:45:02.801Z,4.5
2017-02-01T13:50:03.065Z,4.5
2017-02-01T13:55:03.227Z,4.8
2017-02-01T14:00:02.668Z,4.5
2017-02-01T14:05:02.934Z,4.8
2017-02-01T14:10:03.397Z,4.8
2017-02-01T14:15:02.912Z,4.8
2017-02-01T14:20:02.754Z,4.8
2017-02-01T14:25:02.418Z,4.8
2017-02-01T14:30:02.890Z,4.8
2017-02-01T14:35:03.034Z,4.8
2017-02-01T14:40:02.840Z,4.5
2017-02-01T14:45:03.345Z,4.8
2017-02-01T14:50:02.913Z,4.8
2017-02-01T14:55:02.486Z,4.8
2017-02-01T15:00:02.478Z,4.8
2017-02-01T15:05:03.077Z,4.5
2017-02-01T15:10:03.213Z,4.5
2017-02-01T15:15:02.978Z,4.8
2017-02-01T15:20:03.216Z,4.8
2017-02-01T15:25:02.496Z,5.0
2017-02-01T15:30:03.261Z,4.8
2017-02-01T15:35:02.428Z,5.0
2017-02-01T15:40:02.696Z,5.0
2017-02-01T15:45:02.510Z,5.0
2017-02-01T15:50:02.907Z,5.0
2017-02-01T15:55:03.060Z,5.0
2017-02-01T16:00:03.094Z,5.0
2017-02-01T16:05:03.238Z,5.0
2017-02-01T16:10:02.585Z,5.0
2017-02-01T16:15:03.461Z,5.0
2017-02-01T16:20:02.957Z,5.0
2017-02-01T16:25:02.631Z,5.0
2017-02-01T16:30:03.310Z,5.0
2017-02-01T16:35:03.264Z,5.0
2017-02-01T16:40:02.922Z,5.0
2017-02-01T16:45:02.729Z,5.0
2017-02-01T16:50:03.188Z,5.0
2017-02-01T16:55:02.915Z,5.0
2017-02-01T17:00:02.433Z,5.0
2017-02-01T17:05:02.936Z,5.0
2017-02-01T17:10:02.655Z,5.0
2017-02-01T17:15:03.228Z,5.0
2017-02-01T17:20:02.686Z,5.0
2017-02-01T17:25:02.392Z,5.0
2017-02-01T17:30:02.995Z,5.0
2017-02-01T17:35:02.651Z,5.0
2017-02-01T17:40:03.000Z,5.0
2017-02-01T17:45:02.414Z,5.0
2017-02-01T17:50:03.179Z,5.0
2017-02-01T17:55:02.572Z,5.0
2017-02-01T18:00:03.188Z,5.0
2017-02-01T18:05:02.846Z,5.0
2017-02-01T18:10:02.598Z,5.0
2017-02-01T18:15:03.277Z,5.0
2017-02-01T18:20:03.066Z,5.0
2017-02-01T18:25:02.690Z,5.0
2017-02-01T18:30:03.336Z,5.0
2017-02-01T18:35:02.623Z,5.0
2017-02-01T18:40:02.973Z,5.0
2017-02-01T18:45:02.655Z,5.0
2017-02-01T18:50:02.953Z,5.0
2017-02-01T18:55:02.474Z,5.0
2017-02-01T19:00:03.076Z,5.0
2017-02-01T19:05:02.445Z,5.0
2017-02-01T19:10:02.715Z,5.0
2017-02-01T19:15:03.293Z,5.0
2017-02-01T19:20:02.829Z,5.0
2017-02-01T19:25:02.384Z,5.0
2017-02-01T19:30:03.022Z,5.0
2017-02-01T19:35:02.701Z,5.0
2017-02-01T19:40:03.567Z,5.0
2017-02-01T19:45:03.031Z,5.0
2017-02-01T19:50:02.370Z,5.0
2017-02-01T19:55:02.734Z,5.0
2017-02-01T20:00:03.096Z,4.8
2017-02-01T20:05:02.799Z,4.8
2017-02-01T20:10:02.446Z,4.8
2017-02-01T20:15:03.129Z,4.5
2017-02-01T20:20:02.718Z,4.5
2017-02-01T20:25:03.137Z,4.5
2017-02-01T20:30:02.458Z,4.5
2017-02-01T20:35:02.719Z,4.5
2017-02-01T20:40:03.377Z,4.5
2017-02-01T20:45:02.856Z,4.5
2017-02-01T20:50:03.410Z,4.3
2017-02-01T20:55:03.269Z,4.5
2017-02-01T21:00:02.532Z,4.5
2017-02-01T21:05:02.900Z,4.5
2017-02-01T21:10:02.504Z,4.5
2017-02-01T21:15:03.059Z,4.5
2017-02-01T21:20:02.701Z,4.5
2017-02-01T21:25:03.220Z,4.5
2017-02-01T21:30:02.441Z,4.5
2017-02-01T21:35:02.847Z,4.5
2017-02-01T21:40:03.114Z,4.5
2017-02-01T21:45:02.667Z,4.5
2017-02-01T21:50:03.081Z,4.5
2017-02-01T21:55:02.925Z,4.5
2017-02-01T22:00:02.446Z,4.5
2017-02-01T22:05:03.197Z,4.8
2017-02-01T22:10:02.604Z,4.8
2017-02-01T22:15:02.503Z,4.5
2017-02-01T22:20:02.835Z,4.8
2017-02-01T22:25:03.172Z,5.0
2017-02-01T22:30:02.640Z,5.0
2017-02-01T22:35:03.179Z,5.0
2017-02-01T22:40:02.578Z,5.0
2017-02-01T22:45:03.296Z,5.0
2017-02-01T22:50:02.749Z,5.0
2017-02-01T22:55:02.394Z,5.0
2017-02-01T23:00:02.799Z,5.0
2017-02-01T23:05:02.541Z,5.0
2017-02-01T23:10:02.929Z,5.0
2017-02-01T23:15:03.189Z,5.3
2017-02-01T23:20:02.857Z,5.3
2017-02-01T23:25:03.139Z,5.3
2017-02-01T23:30:02.531Z,5.3
2017-02-01T23:35:03.190Z,5.3
2017-02-01T23:40:02.702Z,5.3
2017-02-01T23:45:03.221Z,5.3
2017-02-01T23:50:02.762Z,5.3
2017-02-01T23:55:02.676Z,5.3
